Time;durP1;ratioP1;P1;durP2;ratioP2;P2;SDS_P1;SDS_P2;PMS_P1;PMS_P2;Temp;Humidity;BMP_temperature;BMP_pressure;BME280_temperature;BME280_humidity;BME280_pressure;Samples;Min_cycle;Max_cycle;Signal;HPM_P1;HPM_P2
2023/12/29 00:02:18;;;;;;;15.13;2.80;;;;;;;;;;4986072;28;20069;-75
2023/12/29 00:04:45;;;;;;;12.80;2.42;;;;;;;;;;4984892;28;20505;-75
2023/12/29 00:07:11;;;;;;;14.82;2.65;;;;;;;;;;4960178;28;20488;-75
2023/12/29 00:09:40;;;;;;;13.88;2.38;;;;;;;;;;4991605;28;20038;-75
2023/12/29 00:12:07;;;;;;;15.25;2.85;;;;;;;;;;4986596;28;20043;-75
2023/12/29 00:14:33;;;;;;;18.73;2.92;;;;;;;;;;4988844;28;20436;-74
2023/12/29 00:16:59;;;;;;;13.60;2.92;;;;;;;;;;4982536;28;20070;-74
2023/12/29 00:19:25;;;;;;;13.82;2.67;;;;;;;;;;4994658;28;20496;-75
2023/12/29 00:21:51;;;;;;;14.35;2.75;;;;;;;;;;4993490;28;20567;-75
2023/12/29 00:24:18;;;;;;;13.38;2.35;;;;;;;;;;4995114;28;20485;-75
2023/12/29 00:26:44;;;;;;;15.13;2.70;;;;;;;;;;4995939;28;20046;-75
2023/12/29 00:29:10;;;;;;;11.65;2.33;;;;;;;;;;4995902;28;20053;-75
2023/12/29 00:31:36;;;;;;;14.43;2.60;;;;;;;;;;4961470;28;20061;-75
2023/12/29 00:34:02;;;;;;;14.38;2.83;;;;;;;;;;4994008;28;20150;-75
2023/12/29 00:36:28;;;;;;;11.30;2.40;;;;;;;;;;4994099;28;20459;-75
2023/12/29 00:38:54;;;;;;;12.38;2.85;;;;;;;;;;4995676;28;20050;-75
2023/12/29 00:41:20;;;;;;;15.82;2.92;;;;;;;;;;4961720;28;20054;-75
2023/12/29 00:43:46;;;;;;;16.33;2.75;;;;;;;;;;4983036;28;20042;-75
2023/12/29 00:46:15;;;;;;;15.82;2.53;;;;;;;;;;4987269;28;20492;-75
2023/12/29 00:48:41;;;;;;;15.65;3.05;;;;;;;;;;4980149;28;20275;-75
2023/12/29 00:51:07;;;;;;;12.20;2.60;;;;;;;;;;4964765;28;20058;-75
2023/12/29 00:53:35;;;;;;;11.07;2.47;;;;;;;;;;4993183;28;20042;-75
2023/12/29 00:56:01;;;;;;;11.63;2.25;;;;;;;;;;4995141;28;20467;-74
2023/12/29 00:58:27;;;;;;;11.77;2.50;;;;;;;;;;4991351;28;20049;-74
2023/12/29 01:00:54;;;;;;;10.70;2.42;;;;;;;;;;4959576;28;20046;-74
2023/12/29 01:03:20;;;;;;;14.07;2.95;;;;;;;;;;4994452;28;20042;-74
2023/12/29 01:05:46;;;;;;;16.83;3.08;;;;;;;;;;4989304;28;20664;-74
2023/12/29 01:08:12;;;;;;;14.18;2.83;;;;;;;;;;4975764;28;20125;-74
2023/12/29 01:10:38;;;;;;;20.13;4.22;;;;;;;;;;4991357;28;20512;-74
2023/12/29 01:13:04;;;;;;;17.25;3.03;;;;;;;;;;4988633;28;20054;-74
2023/12/29 01:15:31;;;;;;;17.15;3.50;;;;;;;;;;4972901;28;20070;-74
2023/12/29 01:17:57;;;;;;;18.77;3.05;;;;;;;;;;4978267;28;20452;-75
2023/12/29 01:20:23;;;;;;;15.52;3.30;;;;;;;;;;4983686;28;20042;-74
2023/12/29 01:22:49;;;;;;;13.98;2.90;;;;;;;;;;4976108;28;20054;-74
2023/12/29 01:25:15;;;;;;;15.30;2.90;;;;;;;;;;4982612;28;20038;-75
2023/12/29 01:27:41;;;;;;;13.70;2.75;;;;;;;;;;4993196;28;20053;-75
2023/12/29 01:30:08;;;;;;;15.82;2.78;;;;;;;;;;4992282;28;20563;-75
2023/12/29 01:32:34;;;;;;;12.20;2.35;;;;;;;;;;4990184;28;20047;-75
2023/12/29 01:35:00;;;;;;;13.10;2.75;;;;;;;;;;4994328;28;20053;-75
2023/12/29 01:37:26;;;;;;;13.85;2.58;;;;;;;;;;4993765;28;20109;-75
2023/12/29 01:39:52;;;;;;;13.07;2.40;;;;;;;;;;4992270;28;20042;-75
2023/12/29 01:42:18;;;;;;;16.05;2.90;;;;;;;;;;4994241;28;20050;-74
2023/12/29 01:44:44;;;;;;;14.80;3.00;;;;;;;;;;4976761;28;20042;-75
2023/12/29 01:47:12;;;;;;;15.77;3.30;;;;;;;;;;4976591;28;20408;-74
2023/12/29 01:49:38;;;;;;;19.98;3.28;;;;;;;;;;4986064;28;20405;-75
2023/12/29 01:52:05;;;;;;;17.35;3.22;;;;;;;;;;4981004;28;20038;-75
2023/12/29 01:54:35;;;;;;;16.70;3.03;;;;;;;;;;4976149;28;20460;-75
2023/12/29 01:57:02;;;;;;;19.30;3.60;;;;;;;;;;4992767;28;20073;-75
2023/12/29 01:59:31;;;;;;;21.05;3.38;;;;;;;;;;4993302;28;20093;-75
2023/12/29 02:01:57;;;;;;;18.58;3.20;;;;;;;;;;4990695;28;20415;-75
2023/12/29 02:04:27;;;;;;;18.42;3.50;;;;;;;;;;4989840;28;20042;-75
2023/12/29 02:06:54;;;;;;;16.25;3.20;;;;;;;;;;4987292;28;20451;-75
2023/12/29 02:09:20;;;;;;;13.05;3.00;;;;;;;;;;4984249;28;22405;-75
2023/12/29 02:11:49;;;;;;;13.77;2.78;;;;;;;;;;4973484;28;20050;-75
2023/12/29 02:14:16;;;;;;;15.68;2.90;;;;;;;;;;4993664;28;20046;-75
2023/12/29 02:17:01;;;;;;;12.48;3.03;;;;;;;;;;4992344;28;20062;-75
2023/12/29 02:19:44;;;;;;;16.40;2.75;;;;;;;;;;4976211;28;20211;-75
2023/12/29 02:22:10;;;;;;;17.92;3.38;;;;;;;;;;4989847;28;20054;-74
2023/12/29 02:24:37;;;;;;;16.60;2.90;;;;;;;;;;4984581;28;20532;-74
2023/12/29 02:27:21;;;;;;;13.93;2.90;;;;;;;;;;4993094;28;20407;-74
2023/12/29 02:29:49;;;;;;;16.58;3.42;;;;;;;;;;4977254;28;21299;-74
2023/12/29 02:32:18;;;;;;;16.05;3.08;;;;;;;;;;4987241;28;20050;-75
2023/12/29 02:34:44;;;;;;;17.83;2.95;;;;;;;;;;4991253;28;20088;-75
2023/12/29 02:37:10;;;;;;;16.13;3.15;;;;;;;;;;4992045;28;20034;-75
2023/12/29 02:39:36;;;;;;;13.90;3.03;;;;;;;;;;4988249;28;20042;-75
2023/12/29 02:42:03;;;;;;;15.90;3.05;;;;;;;;;;4982291;28;20104;-75
2023/12/29 02:44:29;;;;;;;13.23;2.50;;;;;;;;;;4989417;28;20046;-75
2023/12/29 02:46:55;;;;;;;11.95;2.60;;;;;;;;;;4992430;28;20073;-75
2023/12/29 02:49:21;;;;;;;15.05;2.47;;;;;;;;;;4978365;28;20050;-74
2023/12/29 02:51:49;;;;;;;14.63;2.80;;;;;;;;;;4975047;28;20101;-75
2023/12/29 02:54:15;;;;;;;18.83;2.80;;;;;;;;;;4987977;28;20053;-74
2023/12/29 02:56:41;;;;;;;13.88;2.83;;;;;;;;;;4989072;28;20411;-75
2023/12/29 02:59:08;;;;;;;14.52;2.92;;;;;;;;;;4989059;28;20061;-74
2023/12/29 03:01:34;;;;;;;15.63;2.95;;;;;;;;;;4992148;28;20129;-74
2023/12/29 03:04:01;;;;;;;16.13;2.83;;;;;;;;;;4992267;28;20042;-75
2023/12/29 03:06:27;;;;;;;15.13;3.08;;;;;;;;;;4992598;28;20073;-74
2023/12/29 03:08:53;;;;;;;19.35;3.55;;;;;;;;;;4978240;28;20626;-75
2023/12/29 03:11:19;;;;;;;12.98;2.60;;;;;;;;;;4983327;28;20507;-75
2023/12/29 03:13:45;;;;;;;16.10;3.10;;;;;;;;;;4990623;28;20062;-74
2023/12/29 03:16:11;;;;;;;14.00;2.63;;;;;;;;;;4992163;28;20066;-74
2023/12/29 03:18:39;;;;;;;17.13;3.65;;;;;;;;;;4990859;28;20046;-74
2023/12/29 03:21:07;;;;;;;13.85;2.80;;;;;;;;;;4985794;28;20051;-74
2023/12/29 03:23:34;;;;;;;16.00;3.10;;;;;;;;;;4975031;28;20085;-74
2023/12/29 03:26:00;;;;;;;19.17;3.25;;;;;;;;;;4995012;28;20396;-75
2023/12/29 03:28:26;;;;;;;12.02;2.70;;;;;;;;;;4995429;28;20050;-74
2023/12/29 03:30:52;;;;;;;17.65;2.55;;;;;;;;;;4995792;28;20058;-75
2023/12/29 03:33:18;;;;;;;16.90;3.17;;;;;;;;;;4996168;28;20039;-75
2023/12/29 03:35:44;;;;;;;16.27;3.10;;;;;;;;;;4978609;28;20042;-75
2023/12/29 03:38:10;;;;;;;20.88;3.42;;;;;;;;;;4990900;28;20042;-74
2023/12/29 03:40:36;;;;;;;20.58;3.92;;;;;;;;;;4995763;28;20085;-74
2023/12/29 03:43:02;;;;;;;18.25;3.25;;;;;;;;;;4980581;28;20196;-74
2023/12/29 03:45:28;;;;;;;15.88;2.78;;;;;;;;;;4985024;28;20397;-75
2023/12/29 03:47:54;;;;;;;14.98;3.13;;;;;;;;;;4973203;28;20055;-74
2023/12/29 03:50:20;;;;;;;14.88;2.75;;;;;;;;;;4977200;28;20448;-75
2023/12/29 03:52:46;;;;;;;14.85;2.95;;;;;;;;;;4962802;28;20045;-75
2023/12/29 03:55:13;;;;;;;18.52;3.20;;;;;;;;;;4972806;28;20129;-75
2023/12/29 03:57:39;;;;;;;14.90;2.55;;;;;;;;;;4976992;28;20396;-75
2023/12/29 04:00:06;;;;;;;17.05;3.05;;;;;;;;;;4988670;28;20050;-75
2023/12/29 04:02:32;;;;;;;15.52;2.65;;;;;;;;;;4994505;28;20054;-74
2023/12/29 04:05:01;;;;;;;15.23;2.90;;;;;;;;;;4993739;28;20082;-75
2023/12/29 04:07:27;;;;;;;13.48;2.72;;;;;;;;;;4992880;28;20050;-75
2023/12/29 04:09:53;;;;;;;14.23;2.58;;;;;;;;;;4978859;28;20049;-75
2023/12/29 04:12:19;;;;;;;12.07;2.88;;;;;;;;;;4996182;28;20054;-75
2023/12/29 04:14:45;;;;;;;15.25;2.90;;;;;;;;;;4995411;28;20054;-74
2023/12/29 04:17:13;;;;;;;14.13;3.17;;;;;;;;;;4991237;28;20069;-74
2023/12/29 04:19:40;;;;;;;15.63;3.10;;;;;;;;;;4995454;28;20085;-75
2023/12/29 04:22:07;;;;;;;14.60;3.28;;;;;;;;;;4980650;28;20050;-74
2023/12/29 04:24:34;;;;;;;19.40;2.97;;;;;;;;;;4995172;28;20555;-75
2023/12/29 04:27:00;;;;;;;14.35;2.47;;;;;;;;;;4994328;28;20438;-75
2023/12/29 04:29:26;;;;;;;18.25;3.33;;;;;;;;;;4986340;28;20050;-75
2023/12/29 04:31:52;;;;;;;16.15;2.88;;;;;;;;;;4986864;28;20053;-75
2023/12/29 04:34:18;;;;;;;13.15;2.88;;;;;;;;;;4981539;28;20053;-75
2023/12/29 04:36:44;;;;;;;19.00;3.35;;;;;;;;;;4977855;28;20046;-75
2023/12/29 04:39:10;;;;;;;17.63;3.17;;;;;;;;;;4994154;28;20046;-74
2023/12/29 04:41:36;;;;;;;20.13;3.70;;;;;;;;;;4975070;28;20559;-75
2023/12/29 04:44:02;;;;;;;16.35;3.25;;;;;;;;;;4978158;28;20057;-75
2023/12/29 04:46:28;;;;;;;17.35;3.28;;;;;;;;;;4995142;28;20523;-75
2023/12/29 04:48:54;;;;;;;16.52;3.22;;;;;;;;;;4967931;28;20492;-75
2023/12/29 04:51:20;;;;;;;16.15;3.33;;;;;;;;;;4959597;28;20432;-75
2023/12/29 04:53:46;;;;;;;19.35;3.03;;;;;;;;;;4978289;28;20448;-75
2023/12/29 04:56:12;;;;;;;18.02;3.40;;;;;;;;;;4994706;28;20042;-74
2023/12/29 04:58:39;;;;;;;19.88;3.08;;;;;;;;;;4987982;28;20039;-75
2023/12/29 05:01:05;;;;;;;17.17;3.47;;;;;;;;;;4987355;28;20377;-74
2023/12/29 05:03:31;;;;;;;19.85;3.53;;;;;;;;;;4961829;28;20504;-75
2023/12/29 05:05:57;;;;;;;19.30;3.00;;;;;;;;;;4992734;28;20049;-75
2023/12/29 05:08:23;;;;;;;23.48;3.70;;;;;;;;;;4990092;28;20046;-75
2023/12/29 05:10:49;;;;;;;22.13;3.78;;;;;;;;;;4986435;28;20105;-75
2023/12/29 05:13:15;;;;;;;19.77;3.72;;;;;;;;;;4975491;28;20047;-75
2023/12/29 05:15:41;;;;;;;21.70;3.35;;;;;;;;;;4991684;28;20065;-75
2023/12/29 05:18:07;;;;;;;22.20;3.42;;;;;;;;;;4989341;28;20050;-75
2023/12/29 05:20:33;;;;;;;21.25;3.22;;;;;;;;;;4958338;28;20051;-75
2023/12/29 05:22:59;;;;;;;19.73;3.17;;;;;;;;;;4975672;28;20050;-75
2023/12/29 05:25:26;;;;;;;24.50;3.83;;;;;;;;;;4975984;28;20038;-74
2023/12/29 05:27:52;;;;;;;20.10;3.95;;;;;;;;;;4981948;28;20109;-75
2023/12/29 05:30:18;;;;;;;19.17;3.35;;;;;;;;;;4957729;28;20121;-75
2023/12/29 05:32:44;;;;;;;20.13;4.03;;;;;;;;;;4976157;28;20492;-75
2023/12/29 05:35:10;;;;;;;21.77;3.63;;;;;;;;;;4983926;28;20501;-75
2023/12/29 05:37:36;;;;;;;21.10;3.88;;;;;;;;;;4991030;28;20046;-74
2023/12/29 05:40:02;;;;;;;18.48;3.15;;;;;;;;;;4994374;28;20035;-75
2023/12/29 05:42:28;;;;;;;21.67;3.22;;;;;;;;;;4994032;28;20056;-75
2023/12/29 05:44:54;;;;;;;18.70;3.22;;;;;;;;;;4994502;28;20092;-75
2023/12/29 05:47:20;;;;;;;21.30;3.53;;;;;;;;;;4992913;28;20053;-75
2023/12/29 05:49:46;;;;;;;19.98;3.88;;;;;;;;;;4986300;28;20049;-74
2023/12/29 05:52:13;;;;;;;19.77;2.92;;;;;;;;;;4974998;28;20113;-75
2023/12/29 05:54:39;;;;;;;21.23;3.60;;;;;;;;;;4970644;28;20046;-75
2023/12/29 05:57:05;;;;;;;27.10;3.83;;;;;;;;;;4993589;28;20178;-75
2023/12/29 05:59:31;;;;;;;24.15;3.97;;;;;;;;;;4989862;28;20051;-75
2023/12/29 06:01:57;;;;;;;16.65;3.72;;;;;;;;;;4985014;28;20476;-75
2023/12/29 06:04:23;;;;;;;25.02;3.92;;;;;;;;;;4993981;28;20100;-75
2023/12/29 06:06:52;;;;;;;21.40;3.28;;;;;;;;;;4989033;28;20050;-75
2023/12/29 06:09:18;;;;;;;24.38;4.00;;;;;;;;;;4969544;28;20054;-75
2023/12/29 06:11:44;;;;;;;23.05;3.85;;;;;;;;;;4993528;28;20042;-75
2023/12/29 06:14:11;;;;;;;29.10;4.15;;;;;;;;;;4994132;28;20053;-75
2023/12/29 06:16:37;;;;;;;26.88;4.38;;;;;;;;;;4993003;28;20104;-75
2023/12/29 06:19:03;;;;;;;22.73;4.10;;;;;;;;;;4986517;28;20054;-75
2023/12/29 06:21:29;;;;;;;27.30;4.40;;;;;;;;;;4974460;28;20377;-75
2023/12/29 06:23:55;;;;;;;29.10;4.20;;;;;;;;;;4988630;28;20057;-75
2023/12/29 06:26:22;;;;;;;22.20;3.67;;;;;;;;;;4977816;28;20055;-74
2023/12/29 06:28:49;;;;;;;25.48;4.57;;;;;;;;;;4989821;28;20166;-75
2023/12/29 06:31:15;;;;;;;21.65;4.00;;;;;;;;;;4957941;28;20049;-75
2023/12/29 06:33:42;;;;;;;27.13;4.53;;;;;;;;;;4974512;28;20045;-75
2023/12/29 06:36:08;;;;;;;29.95;4.88;;;;;;;;;;4985385;28;20046;-75
2023/12/29 06:38:34;;;;;;;23.00;4.00;;;;;;;;;;4988393;28;20512;-75
2023/12/29 06:41:04;;;;;;;28.60;5.03;;;;;;;;;;4990614;28;20050;-75
2023/12/29 06:43:30;;;;;;;26.65;4.03;;;;;;;;;;4992570;28;20035;-74
2023/12/29 06:45:57;;;;;;;28.60;4.68;;;;;;;;;;4992808;28;20049;-74
2023/12/29 06:48:23;;;;;;;26.85;3.80;;;;;;;;;;4991582;28;20049;-75
2023/12/29 06:50:49;;;;;;;30.85;5.53;;;;;;;;;;4977933;28;20097;-75
2023/12/29 06:53:15;;;;;;;25.17;4.50;;;;;;;;;;4979854;28;20096;-75
2023/12/29 06:55:41;;;;;;;32.22;5.68;;;;;;;;;;4976783;28;20042;-75
2023/12/29 06:58:08;;;;;;;31.08;4.43;;;;;;;;;;4990361;28;20420;-75
2023/12/29 07:00:34;;;;;;;29.95;5.88;;;;;;;;;;4981831;28;20050;-75
2023/12/29 07:03:03;;;;;;;30.40;4.63;;;;;;;;;;4980663;28;20516;-75
2023/12/29 07:05:29;;;;;;;27.85;4.72;;;;;;;;;;4992433;28;20408;-75
2023/12/29 07:07:55;;;;;;;29.80;4.53;;;;;;;;;;4992336;28;20100;-75
2023/12/29 07:10:21;;;;;;;28.90;4.43;;;;;;;;;;4976180;28;20050;-75
2023/12/29 07:12:47;;;;;;;23.50;4.25;;;;;;;;;;4992444;28;20043;-75
2023/12/29 07:15:14;;;;;;;30.10;4.85;;;;;;;;;;4993231;28;20393;-75
2023/12/29 07:17:40;;;;;;;28.10;4.55;;;;;;;;;;4993502;28;20125;-75
2023/12/29 07:20:07;;;;;;;24.15;4.00;;;;;;;;;;4993245;28;20543;-75
2023/12/29 07:22:33;;;;;;;26.83;4.53;;;;;;;;;;4984786;28;20043;-75
2023/12/29 07:25:00;;;;;;;21.98;3.90;;;;;;;;;;4956440;28;20498;-75
2023/12/29 07:27:26;;;;;;;29.88;4.35;;;;;;;;;;4974356;28;20055;-75
2023/12/29 07:29:52;;;;;;;32.47;5.07;;;;;;;;;;4992687;28;20053;-75
2023/12/29 07:32:18;;;;;;;36.90;5.30;;;;;;;;;;4993354;28;20473;-75
2023/12/29 07:34:44;;;;;;;25.48;4.45;;;;;;;;;;4993178;28;20050;-75
2023/12/29 07:37:11;;;;;;;25.60;4.28;;;;;;;;;;4975643;28;20046;-75
2023/12/29 07:39:37;;;;;;;31.92;4.47;;;;;;;;;;4992668;28;20484;-75
2023/12/29 07:42:03;;;;;;;28.30;4.50;;;;;;;;;;4993087;28;20097;-74
2023/12/29 07:44:30;;;;;;;26.42;4.43;;;;;;;;;;4991447;28;20049;-75
2023/12/29 07:46:57;;;;;;;23.73;4.05;;;;;;;;;;4974763;28;20046;-75
2023/12/29 07:49:23;;;;;;;27.15;5.20;;;;;;;;;;4992334;28;20046;-74
2023/12/29 07:51:50;;;;;;;24.15;4.28;;;;;;;;;;4992242;28;20526;-75
2023/12/29 07:54:16;;;;;;;23.33;4.72;;;;;;;;;;4986640;28;20038;-75
2023/12/29 07:56:42;;;;;;;26.75;4.47;;;;;;;;;;4990831;28;20050;-75
2023/12/29 07:59:08;;;;;;;34.22;4.70;;;;;;;;;;4963500;28;20081;-75
2023/12/29 08:01:36;;;;;;;32.53;4.93;;;;;;;;;;4991271;28;20050;-75
2023/12/29 08:04:02;;;;;;;30.40;4.60;;;;;;;;;;4986955;28;20408;-75
2023/12/29 08:06:28;;;;;;;26.15;4.45;;;;;;;;;;4991539;28;20389;-75
2023/12/29 08:08:55;;;;;;;32.83;4.70;;;;;;;;;;4991485;28;20047;-75
2023/12/29 08:11:21;;;;;;;26.08;5.13;;;;;;;;;;4993268;28;20042;-74
2023/12/29 08:13:48;;;;;;;31.42;4.72;;;;;;;;;;4995641;28;20057;-75
2023/12/29 08:16:14;;;;;;;29.75;4.50;;;;;;;;;;4988098;28;20108;-75
2023/12/29 08:18:40;;;;;;;23.30;4.22;;;;;;;;;;4995485;28;20050;-75
2023/12/29 08:21:06;;;;;;;27.00;4.78;;;;;;;;;;4994739;28;20053;-75
2023/12/29 08:23:32;;;;;;;28.83;4.50;;;;;;;;;;4995646;28;20050;-75
2023/12/29 08:25:58;;;;;;;24.65;4.38;;;;;;;;;;4995531;28;20085;-75
2023/12/29 08:28:25;;;;;;;25.08;4.28;;;;;;;;;;4983455;28;20042;-75
2023/12/29 08:30:51;;;;;;;25.27;4.13;;;;;;;;;;4994770;28;20364;-75
2023/12/29 08:33:17;;;;;;;21.42;4.45;;;;;;;;;;4994913;28;20054;-75
2023/12/29 08:35:45;;;;;;;24.48;3.92;;;;;;;;;;4995581;28;20125;-75
2023/12/29 08:38:12;;;;;;;28.52;4.85;;;;;;;;;;4960295;28;20050;-75
2023/12/29 08:40:38;;;;;;;23.15;4.32;;;;;;;;;;4975832;28;20074;-75
2023/12/29 08:43:04;;;;;;;21.30;3.72;;;;;;;;;;4988651;28;20046;-75
2023/12/29 08:45:30;;;;;;;25.85;4.60;;;;;;;;;;4994429;28;20050;-75
2023/12/29 08:47:56;;;;;;;24.17;3.95;;;;;;;;;;4995135;28;20133;-75
2023/12/29 08:50:22;;;;;;;20.35;3.80;;;;;;;;;;4992138;28;20047;-75
2023/12/29 08:52:48;;;;;;;20.52;3.67;;;;;;;;;;4991159;28;20053;-75
2023/12/29 08:55:14;;;;;;;21.38;4.38;;;;;;;;;;4987091;28;20559;-75
2023/12/29 08:57:40;;;;;;;24.20;4.00;;;;;;;;;;4990208;28;20385;-75
2023/12/29 09:00:09;;;;;;;26.55;4.15;;;;;;;;;;4981409;28;20043;-75
2023/12/29 09:02:35;;;;;;;24.33;4.53;;;;;;;;;;4992043;28;20069;-75
2023/12/29 09:05:01;;;;;;;25.58;4.55;;;;;;;;;;4991999;28;20039;-75
2023/12/29 09:07:28;;;;;;;24.42;3.97;;;;;;;;;;4960912;28;20050;-75
2023/12/29 09:09:54;;;;;;;23.55;3.20;;;;;;;;;;4993640;28;20046;-75
2023/12/29 09:12:20;;;;;;;14.05;2.90;;;;;;;;;;4990722;28;20058;-75
2023/12/29 09:14:46;;;;;;;11.88;1.80;;;;;;;;;;4974957;28;20050;-74
2023/12/29 09:17:12;;;;;;;10.68;1.90;;;;;;;;;;4989884;28;20464;-74
2023/12/29 09:19:38;;;;;;;9.73;1.98;;;;;;;;;;4994322;28;20050;-74
2023/12/29 09:22:04;;;;;;;14.30;2.05;;;;;;;;;;4994036;28;20054;-74
2023/12/29 09:24:30;;;;;;;12.20;2.13;;;;;;;;;;4992584;28;20046;-74
2023/12/29 09:26:56;;;;;;;17.25;3.35;;;;;;;;;;4994626;28;20058;-74
2023/12/29 09:29:22;;;;;;;15.27;2.83;;;;;;;;;;4993191;28;20050;-75
2023/12/29 09:31:48;;;;;;;19.00;3.53;;;;;;;;;;4990767;28;20105;-75
2023/12/29 09:34:14;;;;;;;22.38;3.83;;;;;;;;;;4988687;28;20142;-75
2023/12/29 09:36:41;;;;;;;20.85;3.40;;;;;;;;;;4984635;28;20049;-75
2023/12/29 09:39:08;;;;;;;23.95;3.80;;;;;;;;;;4993973;28;20046;-75
2023/12/29 09:41:34;;;;;;;23.42;3.78;;;;;;;;;;4992975;28;20073;-75
2023/12/29 09:44:02;;;;;;;20.35;3.42;;;;;;;;;;4993870;28;20050;-74
2023/12/29 09:46:29;;;;;;;17.98;3.15;;;;;;;;;;4994361;28;20102;-73
2023/12/29 09:48:57;;;;;;;19.67;4.00;;;;;;;;;;4993602;28;20050;-73
2023/12/29 09:51:24;;;;;;;20.33;3.45;;;;;;;;;;4993801;28;20053;-74
2023/12/29 09:53:51;;;;;;;17.88;3.50;;;;;;;;;;4989971;28;20070;-74
2023/12/29 09:56:18;;;;;;;21.20;3.90;;;;;;;;;;4986710;28;20392;-74
2023/12/29 09:58:46;;;;;;;16.48;3.60;;;;;;;;;;4994044;28;20058;-75
2023/12/29 10:01:13;;;;;;;18.92;3.70;;;;;;;;;;4989746;28;20472;-74
2023/12/29 10:03:39;;;;;;;14.60;3.13;;;;;;;;;;4992904;28;20538;-75
2023/12/29 10:06:08;;;;;;;17.98;3.38;;;;;;;;;;4993177;28;20058;-74
2023/12/29 10:08:35;;;;;;;19.70;3.30;;;;;;;;;;4972834;28;20066;-74
2023/12/29 10:11:01;;;;;;;18.13;3.53;;;;;;;;;;4974121;28;20385;-74
2023/12/29 10:13:29;;;;;;;14.65;3.33;;;;;;;;;;4976104;28;20423;-74
2023/12/29 10:15:59;;;;;;;16.17;3.28;;;;;;;;;;4980123;28;20511;-75
2023/12/29 10:18:31;;;;;;;16.83;3.17;;;;;;;;;;4992892;28;20055;-74
2023/12/29 10:21:03;;;;;;;14.18;3.10;;;;;;;;;;4992529;28;20084;-75
2023/12/29 10:23:46;;;;;;;16.48;3.10;;;;;;;;;;4992005;28;20530;-75
2023/12/29 10:26:12;;;;;;;16.38;3.53;;;;;;;;;;4986746;28;20038;-75
2023/12/29 10:28:38;;;;;;;14.27;2.88;;;;;;;;;;4984479;28;20035;-75
2023/12/29 10:31:05;;;;;;;17.73;3.45;;;;;;;;;;4992356;28;20514;-75
2023/12/29 10:33:32;;;;;;;17.08;3.25;;;;;;;;;;4960901;28;20046;-75
2023/12/29 10:36:02;;;;;;;17.05;2.85;;;;;;;;;;4987576;28;20070;-75
2023/12/29 10:38:28;;;;;;;14.27;2.55;;;;;;;;;;4991891;28;20053;-75
2023/12/29 10:40:54;;;;;;;12.65;2.60;;;;;;;;;;4990261;28;20062;-75
2023/12/29 10:43:24;;;;;;;14.95;2.35;;;;;;;;;;4990386;28;20046;-75
2023/12/29 10:45:50;;;;;;;13.30;2.70;;;;;;;;;;4973500;28;20168;-75
2023/12/29 10:48:24;;;;;;;13.02;2.45;;;;;;;;;;4986711;28;20491;-75
2023/12/29 10:50:50;;;;;;;12.63;2.35;;;;;;;;;;4985586;28;20046;-75
2023/12/29 10:53:17;;;;;;;10.90;2.17;;;;;;;;;;4992055;28;20546;-75
2023/12/29 10:55:43;;;;;;;11.85;2.20;;;;;;;;;;4992804;28;20344;-75
2023/12/29 10:58:09;;;;;;;9.07;1.70;;;;;;;;;;4993098;28;20100;-75
2023/12/29 11:00:35;;;;;;;8.38;1.83;;;;;;;;;;4979519;28;20043;-75
2023/12/29 11:03:02;;;;;;;9.57;2.00;;;;;;;;;;4975390;28;20049;-75
2023/12/29 11:05:28;;;;;;;10.48;1.80;;;;;;;;;;4992837;28;20389;-75
2023/12/29 11:07:55;;;;;;;11.95;1.80;;;;;;;;;;4992828;28;20054;-75
2023/12/29 11:10:21;;;;;;;11.73;2.00;;;;;;;;;;4992278;28;20070;-75
2023/12/29 11:12:48;;;;;;;14.52;2.00;;;;;;;;;;4995147;28;20058;-75
2023/12/29 11:15:15;;;;;;;10.02;1.95;;;;;;;;;;4974564;28;20113;-75
2023/12/29 11:17:52;;;;;;;10.23;1.80;;;;;;;;;;4993278;28;20476;-75
2023/12/29 11:20:19;;;;;;;10.95;1.95;;;;;;;;;;4991619;28;20472;-75
2023/12/29 11:22:47;;;;;;;16.92;2.42;;;;;;;;;;4985867;28;20095;-75
2023/12/29 11:25:13;;;;;;;10.75;2.22;;;;;;;;;;4991415;28;20038;-75
2023/12/29 11:27:39;;;;;;;16.15;2.17;;;;;;;;;;4992406;28;20531;-75
2023/12/29 11:30:05;;;;;;;13.32;2.30;;;;;;;;;;4977908;28;20050;-75
2023/12/29 11:32:32;;;;;;;15.02;2.38;;;;;;;;;;4980820;28;20050;-75
2023/12/29 11:35:04;;;;;;;12.50;2.10;;;;;;;;;;4992495;28;20109;-75
2023/12/29 11:37:33;;;;;;;18.77;2.72;;;;;;;;;;4992812;28;20122;-75
2023/12/29 11:40:11;;;;;;;12.35;2.20;;;;;;;;;;4992316;28;20053;-75
2023/12/29 11:42:40;;;;;;;14.73;2.00;;;;;;;;;;4992353;28;20208;-75
2023/12/29 11:45:26;;;;;;;14.23;1.88;;;;;;;;;;4957124;28;20065;-75
2023/12/29 11:47:53;;;;;;;11.32;1.90;;;;;;;;;;4977917;28;20510;-75
2023/12/29 11:50:33;;;;;;;19.30;3.22;;;;;;;;;;4978060;28;20042;-75
2023/12/29 11:52:59;;;;;;;13.50;2.88;;;;;;;;;;4995671;28;20488;-75
2023/12/29 11:55:37;;;;;;;19.23;3.20;;;;;;;;;;4977883;28;20042;-75
2023/12/29 11:58:07;;;;;;;21.92;3.50;;;;;;;;;;4990197;28;20087;-75
2023/12/29 12:00:49;;;;;;;22.20;3.00;;;;;;;;;;4990463;28;20105;-74
2023/12/29 12:03:25;;;;;;;14.27;2.55;;;;;;;;;;4992100;28;20049;-75
2023/12/29 12:05:52;;;;;;;16.98;3.10;;;;;;;;;;4990696;28;20098;-75
2023/12/29 12:08:28;;;;;;;18.52;3.08;;;;;;;;;;4977684;28;20038;-74
2023/12/29 12:10:54;;;;;;;16.73;2.28;;;;;;;;;;4995096;28;20051;-75
2023/12/29 12:13:39;;;;;;;17.15;2.25;;;;;;;;;;4990300;28;20039;-74
2023/12/29 12:16:05;;;;;;;13.52;2.60;;;;;;;;;;4989598;28;20065;-75
2023/12/29 12:18:32;;;;;;;16.52;2.92;;;;;;;;;;4984289;28;20472;-75
2023/12/29 12:21:00;;;;;;;19.65;2.95;;;;;;;;;;4988866;28;20051;-75
2023/12/29 12:23:26;;;;;;;18.27;2.90;;;;;;;;;;4990460;28;20043;-75
2023/12/29 12:25:59;;;;;;;15.15;2.67;;;;;;;;;;4966405;28;20050;-74
2023/12/29 12:28:25;;;;;;;17.45;2.92;;;;;;;;;;4987143;28;20093;-75
2023/12/29 12:30:53;;;;;;;19.08;3.00;;;;;;;;;;4986719;28;20100;-74
2023/12/29 12:33:19;;;;;;;24.27;3.92;;;;;;;;;;4991211;28;20061;-75
2023/12/29 12:35:46;;;;;;;15.77;3.17;;;;;;;;;;4993032;28;20057;-75
2023/12/29 12:38:22;;;;;;;19.25;3.20;;;;;;;;;;4982618;28;20042;-75
2023/12/29 12:40:48;;;;;;;14.68;2.72;;;;;;;;;;4985479;28;20042;-75
2023/12/29 12:43:17;;;;;;;25.80;3.85;;;;;;;;;;4989707;28;20109;-75
2023/12/29 12:45:54;;;;;;;19.38;2.75;;;;;;;;;;4984189;28;20469;-75
2023/12/29 12:48:22;;;;;;;18.02;2.90;;;;;;;;;;4988592;28;20089;-75
2023/12/29 12:50:49;;;;;;;18.25;2.80;;;;;;;;;;4985398;28;20392;-75
2023/12/29 12:53:20;;;;;;;18.73;2.45;;;;;;;;;;4987779;28;20504;-75
2023/12/29 12:55:48;;;;;;;14.60;2.65;;;;;;;;;;4990929;28;20464;-75
2023/12/29 12:58:14;;;;;;;12.45;2.90;;;;;;;;;;4984464;28;20361;-75
2023/12/29 13:00:41;;;;;;;18.38;2.67;;;;;;;;;;4988628;28;20042;-75
2023/12/29 13:03:07;;;;;;;16.75;2.45;;;;;;;;;;4989516;28;20582;-75
2023/12/29 13:05:33;;;;;;;15.43;2.90;;;;;;;;;;4989584;28;20057;-75
2023/12/29 13:08:01;;;;;;;16.10;2.78;;;;;;;;;;4986379;28;20646;-75
2023/12/29 13:10:27;;;;;;;19.10;2.83;;;;;;;;;;4984932;28;20073;-75
2023/12/29 13:12:54;;;;;;;14.48;2.70;;;;;;;;;;4994553;28;20050;-75
2023/12/29 13:15:20;;;;;;;13.90;2.00;;;;;;;;;;4994061;28;20061;-75
2023/12/29 13:17:53;;;;;;;15.65;2.70;;;;;;;;;;4994710;28;20054;-75
2023/12/29 13:20:19;;;;;;;13.55;2.75;;;;;;;;;;4990519;28;20125;-75
2023/12/29 13:22:47;;;;;;;17.60;3.53;;;;;;;;;;4990839;28;20038;-75
2023/12/29 13:25:18;;;;;;;16.80;3.53;;;;;;;;;;4991386;28;20058;-75
2023/12/29 13:27:44;;;;;;;17.90;2.92;;;;;;;;;;4981730;28;20043;-75
2023/12/29 13:30:12;;;;;;;19.50;3.00;;;;;;;;;;4986380;28;20053;-75
2023/12/29 13:32:38;;;;;;;16.08;2.58;;;;;;;;;;4976603;28;20047;-75
2023/12/29 13:35:05;;;;;;;14.55;2.97;;;;;;;;;;4978505;28;20046;-75
2023/12/29 13:37:52;;;;;;;15.93;2.95;;;;;;;;;;4993917;28;20101;-75
2023/12/29 13:40:24;;;;;;;22.65;4.05;;;;;;;;;;4966514;28;20057;-75
2023/12/29 13:42:53;;;;;;;18.35;3.50;;;;;;;;;;4959502;28;20051;-75
2023/12/29 13:45:20;;;;;;;18.40;2.33;;;;;;;;;;4993339;28;20131;-75
2023/12/29 13:47:47;;;;;;;18.23;2.85;;;;;;;;;;4985992;28;20046;-75
2023/12/29 13:50:13;;;;;;;18.70;2.85;;;;;;;;;;4987657;28;20049;-75
2023/12/29 13:52:39;;;;;;;15.75;3.03;;;;;;;;;;4993123;28;20349;-75
2023/12/29 13:55:06;;;;;;;17.05;3.10;;;;;;;;;;4991049;28;20062;-75
2023/12/29 13:57:32;;;;;;;16.10;2.60;;;;;;;;;;4989039;28;20397;-75
2023/12/29 14:00:13;;;;;;;16.83;3.08;;;;;;;;;;4966283;28;20074;-75
2023/12/29 14:02:40;;;;;;;17.85;2.65;;;;;;;;;;4965485;28;20097;-75
2023/12/29 14:05:11;;;;;;;16.25;2.60;;;;;;;;;;4981715;28;20034;-75
2023/12/29 14:07:38;;;;;;;18.33;3.17;;;;;;;;;;4992121;28;20046;-75
2023/12/29 14:10:04;;;;;;;20.40;2.95;;;;;;;;;;4991291;28;20447;-75
2023/12/29 14:12:30;;;;;;;19.35;3.80;;;;;;;;;;4988458;28;20065;-75
2023/12/29 14:15:02;;;;;;;18.42;3.50;;;;;;;;;;4992551;28;20038;-75
2023/12/29 14:17:29;;;;;;;15.88;3.08;;;;;;;;;;4991518;28;20058;-75
2023/12/29 14:19:55;;;;;;;18.85;3.25;;;;;;;;;;4983488;28;20353;-75
2023/12/29 14:22:24;;;;;;;19.02;3.15;;;;;;;;;;4965347;28;20045;-75
2023/12/29 14:25:07;;;;;;;15.95;2.80;;;;;;;;;;4987163;28;20043;-75
2023/12/29 14:27:33;;;;;;;15.57;2.60;;;;;;;;;;4990498;28;20175;-75
2023/12/29 14:29:59;;;;;;;14.60;2.67;;;;;;;;;;4990991;28;20085;-75
2023/12/29 14:32:28;;;;;;;18.13;3.28;;;;;;;;;;4988535;28;20073;-75